» Metar & Tafor

16 Oktober 2018
METAR
Pukul : 08.00 UTC
Isi :

METAR WAGI 160800Z 16003KT 9000 FEW012CB BKN012 29/25 Q1008 RMK CB OVER TO THE W=


16 Oktober 2018
METAR
Pukul : 07.30 UTC
Isi :

METAR WAGI 160730Z 17003KT 7000 FEW012CB BKN012 27/24 Q1009 RMK CB OVER TO THE W=


16 Oktober 2018
METAR
Pukul : 06.30 UTC
Isi :

METAR WAGI 160630Z 13015KT TS FEW012CB BKN012 31/23 Q1009 RMK CB OVER THE FIELD=


14 Oktober 2018
METAR
Pukul : 06.00 UTC
Isi :
METAR WAGI 160600Z 00000KT 9999 BKN012 33/23 Q1009 NOSIG=

30 Agustus 2018
TAFOR
Pukul : 05.00 UTC
Isi :

TAF AMD WAGI 160500Z 1606/1618 VRB05KT 9999 SCT012 TEMPO 1607/1611 3000 -TSRA FEW012CB BKN012 BECMG 1611/1613 00000KT 6000=


Hal: << First | < Prev | 1 | Next > | Last >>